• Join FlightAware (Why Join?)
  • Login
  • US Flag 
01:31AM EDT


 

Airport Tracker/Info


-or-


 

Live Flight TrackerFlight Track Log ✈ FLG4340 ✈ 05-May-2012 ✈ KMCO - KRDU

Flight Track Log - Related Links

Times and Time Zones

All times are in EDT time to prevent confusion due to time zone crossing. See the FLG4340 flight status page for this flight to view local times or setup timezone preferences in your user account.

Time Position Orientation Groundspeed Altitude Reporting Facility
EDT Latitude Longitude Course Direction KTS MPH feet Rate Location/Type
11:09AM 28.4167 -81.3000 156° South 160 184 400  Level Orlando TRACON
11:10AM 28.3833 -81.2833 164° South 163 188 1,600 1,860 Climbing Orlando TRACON
11:11AM 28.3333 -81.2667 90° East 198 228 3,200 1,680 Climbing Orlando TRACON
11:12AM 28.3333 -81.1833 36° Northeast 255 293 5,100 2,040 Climbing Orlando TRACON
11:13AM 28.4194 -81.1131 342° North 294 338 9,300 2,100 Climbing Jacksonville Center
11:14AM 28.4989 -81.1422 339° North 280 322 11,100 1,500 Climbing Jacksonville Center
11:15AM 28.5892 -81.1808 341° North 299 344 12,300 1,500 Climbing Jacksonville Center
11:16AM 28.6836 -81.2172 339° North 334 384 14,100 1,800 Climbing Jacksonville Center
11:17AM 28.7761 -81.2581 339° North 348 400 16,000 1,740 Climbing Jacksonville Center
11:18AM 28.8706 -81.2994 343° North 353 406 17,600 1,320 Climbing Jacksonville Center
11:19AM 28.9669 -81.3333 340° North 353 406 18,700 900 Climbing Jacksonville Center
11:20AM 29.0656 -81.3744 351° North 365 420 19,500 720 Climbing Jacksonville Center
11:21AM 29.1722 -81.3944 354° North 378 435 20,200 900 Climbing Jacksonville Center
11:22AM 29.2789 -81.4069 355° North 389 448 21,300 1,080 Climbing Jacksonville Center
11:23AM 29.3875 -81.4172 353° North 382 440 22,400 840 Climbing Jacksonville Center
11:24AM 29.4794 -81.4303 355° North 385 443 23,000 540 Climbing Jacksonville Center
11:25AM 29.5903 -81.4406 355° North 385 443 23,500 480 Climbing Jacksonville Center
11:26AM 29.7008 -81.4508 355° North 385 443 24,000 780 Climbing Jacksonville Center
11:27AM 29.8117 -81.4611 355° North 391 450 25,100 1,140 Climbing Jacksonville Center
11:28AM 29.9203 -81.4714 355° North 391 450 26,300 1,080 Climbing Jacksonville Center
11:29AM 30.0269 -81.4819 340° North 385 443 27,300 780 Climbing Jacksonville Center
11:30AM 30.1403 -81.5308 342° North 385 443 27,900 540 Climbing Jacksonville Center
11:31AM 30.2431 -81.5700 341° North 390 449 28,400 480 Climbing Jacksonville Center
11:32AM 30.3519 -81.6144 342° North 395 455 28,900 720 Climbing Jacksonville Center
11:33AM 30.4589 -81.6539 358° North 400 460 29,900 840 Climbing Jacksonville Center
11:34AM 30.5675 -81.6572 14° North 390 449 30,600 540 Climbing Jacksonville Center
11:35AM 30.6736 -81.6269 14° North 384 442 31,000 180 Climbing Jacksonville Center
11:36AM 30.7839 -81.5942 15° North 389 448 31,000  Level Jacksonville Center
11:37AM 30.8756 -81.5661 13° North 396 456 31,000  Level Jacksonville Center
11:38AM 31.0131 -81.5278 14° North 408 470 31,000  Level Jacksonville Center
11:39AM 31.1294 -81.4947 15° North 421 484 31,000  Level Jacksonville Center
11:40AM 31.2231 -81.4664 12° North 431 496 31,000  Level Jacksonville Center
11:41AM 31.3625 -81.4303 14° North 431 496 31,000  Level Jacksonville Center
11:42AM 31.4833 -81.3944 14° North 436 502 31,000  Level Jacksonville Center
11:43AM 31.5914 -81.3633 13° North 437 503 31,000  Level Jacksonville Center
11:44AM 31.7206 -81.3269 14° North 437 503 31,000  Level Jacksonville Center
11:45AM 31.8411 -81.2908 14° North 436 502 31,000  Level Jacksonville Center
11:46AM 31.9617 -81.2544 14° North 438 504 31,000  Level Jacksonville Center
11:47AM 32.0844 -81.2178 North 438 504 31,000  Level Jacksonville Center
11:48AM 32.2075 -81.1958 North 443 510 31,000  Level Jacksonville Center
11:49AM 32.3325 -81.1886 North 451 519 31,000  Level Jacksonville Center
11:50AM 32.4450 -81.1767 North 451 519 31,000  Level Jacksonville Center
11:51AM 32.5828 -81.1642 North 451 519 31,000  Level Jacksonville Center
11:52AM 32.7100 -81.1519 22° Northeast 451 519 31,000  Level Jacksonville Center
11:53AM 32.8261 -81.0953 24° Northeast 439 505 31,000  Level Jacksonville Center
11:54AM 32.9400 -81.0361 23° Northeast 439 505 31,000  Level Jacksonville Center
11:55AM 33.0558 -80.9767 23° Northeast 444 511 31,000  Level Jacksonville Center
11:56AM 33.1739 -80.9172 24° Northeast 444 511 31,000  Level Jacksonville Center
11:57AM 33.2878 -80.8575 24° Northeast 450 518 31,000  Level Jacksonville Center
11:58AM 33.4036 -80.7950 24° Northeast 455 524 31,000  Level Jacksonville Center
11:59AM 33.4967 -80.7456 23° Northeast 455 524 31,000  Level Jacksonville Center
12:00PM 33.6250 -80.6800 24° Northeast 455 524 31,000 -240 Level Jacksonville Center
12:01PM 33.7408 -80.6172 24° Northeast 455 524 30,600 -720 Descending Jacksonville Center
12:02PM 33.8586 -80.5542 24° Northeast 455 524 29,600 -840 Descending Jacksonville Center
12:03PM 33.9764 -80.4911 23° Northeast 455 524 29,000 -300 Descending Jacksonville Center
12:04PM 34.0858 -80.4353 25° Northeast 448 516 29,000 -840 Level Jacksonville Center
12:05PM 34.1994 -80.3719 23° Northeast 442 509 27,400 -1,800 Descending Jacksonville Center
12:06PM 34.3150 -80.3131 24° Northeast 442 509 25,500 -1,920 Descending Jacksonville Center
12:07PM 34.4283 -80.2519 24° Northeast 442 509 23,600 -1,380 Descending Jacksonville Center
12:10PM 34.6786 -80.1178 26° Northeast 408 470 21,000 -840 Descending Washington Center
12:11PM 34.7853 -80.0553 40° Northeast 413 475 21,000  Level Washington Center
12:12PM 34.8700 -79.9689 42° Northeast 424 488 21,000  Level Washington Center
12:13PM 34.9569 -79.8722 42° Northeast 429 494 21,000  Level Washington Center
12:14PM 35.0458 -79.7728 41° Northeast 429 494 21,000 -1,020 Level Washington Center
12:15PM 35.1347 -79.6786 39° Northeast 429 494 19,100 -2,640 Descending Washington Center
12:16PM 35.2319 -79.5817 27° Northeast 410 472 15,700 -3,120 Descending Washington Center
12:17PM 35.3236 -79.5253 North 381 438 13,000 -2,580 Descending Washington Center
12:17PM 35.3758 -79.5200 42° Northeast 372 428 11,800 -1,320 Descending Washington Center
12:18PM 35.4517 -79.4369 51° Northeast 381 438 11,000 -420 Descending Washington Center
12:19PM 35.5194 -79.3358 52° Northeast 383 441 11,000  Level Washington Center
12:20PM 35.5875 -79.2292 52° Northeast 375 432 11,000  Level Washington Center
12:21PM 35.6531 -79.1272 50° Northeast 373 429 11,000 -180 Level Washington Center
12:23PM 35.7294 -79.0131 55° Northeast 377 434 10,600 -840 Descending Washington Center
12:24PM 35.7822 -78.9206 31° Northeast 312 359 9,200 -1,200 Descending Washington Center
12:25PM 35.8567 -78.8647 30° Northeast 285 328 8,000 -660 Descending Washington Center
12:25PM 35.9122 -78.8258 28° Northeast 282 325 8,000 -960 Level Washington Center
12:27PM 35.9781 -78.7825 45° Northeast 266 306 6,400 -1,680 Descending Washington Center
12:28PM 36.0339 -78.7128 159° South 258 297 4,300 -1,500 Descending Washington Center
12:29PM 35.9806 -78.6875 211° Southwest 218 251 3,100 -1,260 Descending Washington Center
12:29PM 35.9506 -78.7094 225° Southwest 193 222 2,200 -1,200 Descending Washington Center
12:30PM 35.9139 -78.7542 225° Southwest 162 186 1,100 -1,140 Descending Washington Center